createdAt,value
2022-11-30T00:01:25.073Z,100298.90
2022-11-30T00:03:55.024Z,100301.72
2022-11-30T00:06:24.330Z,100299.17
2022-11-30T00:08:53.612Z,100300.81
2022-11-30T00:11:23.450Z,100305.90
2022-11-30T00:13:51.830Z,100308.63
2022-11-30T00:16:19.935Z,100311.09
2022-11-30T00:18:48.113Z,100310.38
2022-11-30T00:21:17.807Z,100311.95
2022-11-30T00:23:47.889Z,100312.27
2022-11-30T00:26:18.721Z,100309.95
2022-11-30T00:28:47.845Z,100308.66
2022-11-30T00:31:18.130Z,100307.48
2022-11-30T00:33:46.900Z,100308.70
2022-11-30T00:36:20.309Z,100307.80
2022-11-30T00:38:50.092Z,100302.45
2022-11-30T00:41:19.692Z,100308.55
2022-11-30T00:43:48.039Z,100308.84
2022-11-30T00:46:16.178Z,100316.50
2022-11-30T00:48:44.490Z,100312.64
2022-11-30T00:51:13.308Z,100313.13
2022-11-30T00:53:42.124Z,100315.83
2022-11-30T00:56:11.110Z,100318.23
2022-11-30T00:58:39.273Z,100321.19
2022-11-30T01:01:08.450Z,100326.38
2022-11-30T01:03:37.033Z,100329.55
2022-11-30T01:06:08.309Z,100330.60
2022-11-30T01:08:37.412Z,100328.27
2022-11-30T01:11:17.618Z,100330.29
2022-11-30T01:13:45.687Z,100332.02
2022-11-30T01:16:17.755Z,100329.02
2022-11-30T01:18:46.895Z,100330.23
2022-11-30T01:21:17.570Z,100325.17
2022-11-30T01:23:46.416Z,100325.55
2022-11-30T01:26:14.819Z,100328.80
2022-11-30T01:28:44.472Z,100325.11
2022-11-30T01:31:14.943Z,100324.44
2022-11-30T01:33:43.623Z,100323.98
2022-11-30T01:36:14.552Z,100328.13
2022-11-30T01:38:55.781Z,100325.43
2022-11-30T01:41:25.820Z,100328.84
2022-11-30T01:43:56.873Z,100328.65
2022-11-30T01:46:44.190Z,100328.36
2022-11-30T01:49:32.007Z,100325.63
2022-11-30T01:52:07.697Z,100329.00
2022-11-30T01:55:14.660Z,100331.52
2022-11-30T01:57:48.497Z,100336.05
2022-11-30T02:00:17.221Z,100333.23
2022-11-30T02:03:11.442Z,100326.73
2022-11-30T02:05:41.597Z,100328.70
2022-11-30T02:08:11.243Z,100328.59
2022-11-30T02:10:43.638Z,100330.61
2022-11-30T02:13:17.576Z,100328.48
2022-11-30T02:16:27.429Z,100329.30
2022-11-30T02:19:24.754Z,100328.94
2022-11-30T02:22:20.786Z,100334.79
2022-11-30T02:25:26.383Z,100336.84
2022-11-30T02:28:18.991Z,100340.39
2022-11-30T02:30:52.391Z,100341.44
2022-11-30T02:33:25.986Z,100342.10
2022-11-30T02:35:55.986Z,100337.59
2022-11-30T02:38:26.986Z,100340.05
2022-11-30T02:40:55.441Z,100338.89
2022-11-30T02:43:25.874Z,100341.89
2022-11-30T02:46:28.030Z,100344.13
2022-11-30T02:49:05.489Z,100347.45
2022-11-30T02:51:38.265Z,100346.09
2022-11-30T02:54:06.377Z,100346.02
2022-11-30T02:56:34.662Z,100344.95
2022-11-30T02:59:02.827Z,100346.80
2022-11-30T03:01:30.961Z,100349.41
2022-11-30T03:03:58.976Z,100347.91
2022-11-30T03:06:26.953Z,100347.48
2022-11-30T03:08:54.981Z,100345.58
2022-11-30T03:11:23.050Z,100348.44
2022-11-30T03:13:51.157Z,100349.13
2022-11-30T03:16:19.241Z,100345.80
2022-11-30T03:18:47.314Z,100346.84
2022-11-30T03:21:15.355Z,100345.69
2022-11-30T03:23:43.431Z,100343.67
2022-11-30T03:26:11.590Z,100345.38
2022-11-30T03:28:39.672Z,100344.57
2022-11-30T03:31:12.774Z,100344.69
2022-11-30T03:33:42.348Z,100344.52
2022-11-30T03:36:12.069Z,100351.04
2022-11-30T03:38:40.625Z,100350.11
2022-11-30T03:41:12.382Z,100355.30
2022-11-30T03:43:41.050Z,100357.95
2022-11-30T03:46:09.539Z,100361.52
2022-11-30T03:48:38.465Z,100364.86
2022-11-30T03:51:07.470Z,100370.67
2022-11-30T03:53:35.484Z,100373.13
2022-11-30T03:56:06.358Z,100371.38
2022-11-30T03:58:35.261Z,100375.58
2022-11-30T04:01:24.231Z,100375.38
2022-11-30T04:03:53.003Z,100378.55
2022-11-30T04:06:21.903Z,100380.89
2022-11-30T04:08:50.358Z,100375.69
2022-11-30T04:11:18.566Z,100370.68
2022-11-30T04:13:46.644Z,100373.38
2022-11-30T04:16:21.107Z,100371.16
2022-11-30T04:18:49.155Z,100370.84
2022-11-30T04:21:17.183Z,100371.05
2022-11-30T04:23:45.469Z,100377.11
2022-11-30T04:26:15.184Z,100375.95
2022-11-30T04:28:43.704Z,100378.14
2022-11-30T04:31:12.661Z,100383.79
2022-11-30T04:33:40.716Z,100385.13
2022-11-30T04:36:17.799Z,100386.31
2022-11-30T04:38:46.564Z,100390.80
2022-11-30T04:41:14.957Z,100395.13
2022-11-30T04:43:42.949Z,100392.20
2022-11-30T04:46:11.140Z,100393.55
2022-11-30T04:48:39.265Z,100397.82
2022-11-30T04:51:08.995Z,100397.83
2022-11-30T04:53:38.291Z,100399.92
2022-11-30T04:56:08.136Z,100406.34
2022-11-30T04:58:36.702Z,100406.33
2022-11-30T05:01:05.270Z,100408.61
2022-11-30T05:03:33.456Z,100409.44
2022-11-30T05:06:01.950Z,100407.55
2022-11-30T05:08:30.524Z,100415.50
2022-11-30T05:10:58.854Z,100414.75
2022-11-30T05:13:27.271Z,100417.69
2022-11-30T05:15:55.345Z,100414.05
2022-11-30T05:18:23.718Z,100413.66
2022-11-30T05:20:53.585Z,100414.34
2022-11-30T05:23:22.203Z,100418.77
2022-11-30T05:25:50.350Z,100415.83
2022-11-30T05:28:18.509Z,100417.98
2022-11-30T05:30:46.811Z,100417.86
2022-11-30T05:33:15.097Z,100421.47
2022-11-30T05:35:43.692Z,100417.17
2022-11-30T05:38:11.788Z,100421.66
2022-11-30T05:40:39.819Z,100421.52
2022-11-30T05:43:07.834Z,100423.38
2022-11-30T05:45:35.930Z,100422.52
2022-11-30T05:48:04.110Z,100422.79
2022-11-30T05:50:32.200Z,100423.98
2022-11-30T05:53:01.118Z,100424.63
2022-11-30T05:55:29.809Z,100428.15
2022-11-30T05:57:58.107Z,100426.80
2022-11-30T06:00:26.669Z,100429.37
2022-11-30T06:02:58.791Z,100435.30
2022-11-30T06:05:28.113Z,100438.57
2022-11-30T06:07:59.736Z,100443.20
2022-11-30T06:10:27.957Z,100445.63
2022-11-30T06:12:56.022Z,100439.82
2022-11-30T06:15:24.065Z,100443.17
2022-11-30T06:17:52.176Z,100442.55
2022-11-30T06:20:20.189Z,100443.80
2022-11-30T06:22:48.231Z,100446.66
2022-11-30T06:25:16.306Z,100445.78
2022-11-30T06:27:44.337Z,100447.48
2022-11-30T06:30:13.061Z,100443.39
2022-11-30T06:32:45.440Z,100439.73
2022-11-30T06:35:14.275Z,100440.75
2022-11-30T06:37:43.296Z,100440.90
2022-11-30T06:40:13.140Z,100439.55
2022-11-30T06:42:41.128Z,100439.48
2022-11-30T06:45:09.823Z,100441.34
2022-11-30T06:47:37.873Z,100442.44
2022-11-30T06:50:08.330Z,100440.84
2022-11-30T06:52:36.367Z,100443.34
2022-11-30T06:55:04.697Z,100442.45
2022-11-30T06:57:32.752Z,100445.78
2022-11-30T07:00:00.786Z,100444.27
2022-11-30T07:02:28.871Z,100449.23
2022-11-30T07:04:57.354Z,100447.98
2022-11-30T07:07:25.571Z,100449.11
2022-11-30T07:09:53.694Z,100449.33
2022-11-30T07:12:21.719Z,100452.68
2022-11-30T07:14:53.042Z,100453.38
2022-11-30T07:17:21.107Z,100453.81
2022-11-30T07:19:49.280Z,100450.95
2022-11-30T07:22:17.271Z,100451.02
2022-11-30T07:25:03.885Z,100451.15
2022-11-30T07:27:31.935Z,100452.88
2022-11-30T07:30:00.018Z,100451.06
2022-11-30T07:32:28.097Z,100450.52
2022-11-30T07:34:56.151Z,100453.10
2022-11-30T07:37:24.523Z,100463.23
2022-11-30T07:39:52.624Z,100463.23
2022-11-30T07:42:20.759Z,100463.73
2022-11-30T07:44:55.264Z,100462.61
2022-11-30T07:47:26.723Z,100464.04
2022-11-30T07:49:54.819Z,100457.16
2022-11-30T07:52:23.179Z,100458.38
2022-11-30T07:54:51.227Z,100458.77
2022-11-30T07:57:19.358Z,100457.58
2022-11-30T07:59:47.627Z,100455.28
2022-11-30T08:02:16.065Z,100454.85
2022-11-30T08:04:44.467Z,100458.15
2022-11-30T08:07:16.225Z,100455.04
2022-11-30T08:09:45.321Z,100456.13
2022-11-30T08:12:13.398Z,100456.11
2022-11-30T08:15:17.521Z,100458.45
2022-11-30T08:17:29.495Z,100457.07
2022-11-30T08:19:57.515Z,100455.89
2022-11-30T08:22:25.527Z,100456.21
2022-11-30T08:24:53.610Z,100456.55
2022-11-30T08:27:21.770Z,100458.15
2022-11-30T08:29:49.835Z,100455.14
2022-11-30T08:32:18.459Z,100458.01
2022-11-30T08:34:47.222Z,100456.21
2022-11-30T08:37:15.432Z,100460.65
2022-11-30T08:39:43.413Z,100462.67
2022-11-30T08:42:12.456Z,100462.39
2022-11-30T08:44:40.525Z,100463.22
2022-11-30T08:47:08.660Z,100465.88
2022-11-30T08:49:36.774Z,100469.12
2022-11-30T08:52:20.378Z,100465.98
2022-11-30T08:54:49.047Z,100461.95
2022-11-30T08:57:20.083Z,100462.84
2022-11-30T08:59:48.674Z,100460.85
2022-11-30T09:02:19.645Z,100459.27
2022-11-30T09:04:49.600Z,100457.41
2022-11-30T09:07:18.247Z,100457.41
2022-11-30T09:09:46.621Z,100456.36
2022-11-30T09:12:14.989Z,100457.17
2022-11-30T09:14:43.022Z,100456.11
2022-11-30T09:17:11.162Z,100458.17
2022-11-30T09:19:39.763Z,100459.34
2022-11-30T09:22:07.810Z,100462.29
2022-11-30T09:24:36.297Z,100465.15
2022-11-30T09:27:04.345Z,100465.23
2022-11-30T09:29:32.616Z,100466.58
2022-11-30T09:32:00.628Z,100464.48
2022-11-30T09:34:28.777Z,100466.35
2022-11-30T09:36:56.921Z,100465.05
2022-11-30T09:39:25.262Z,100465.93
2022-11-30T09:42:50.575Z,100460.82
2022-11-30T09:45:30.649Z,100458.95
2022-11-30T09:47:59.077Z,100459.30
2022-11-30T09:50:32.286Z,100459.38
2022-11-30T09:53:10.821Z,100456.88
2022-11-30T09:55:43.838Z,100455.33
2022-11-30T09:58:50.977Z,100457.04
2022-11-30T10:01:20.962Z,100453.85
2022-11-30T10:03:49.789Z,100455.69
2022-11-30T10:06:25.683Z,100457.80
2022-11-30T10:09:02.711Z,100454.62
2022-11-30T10:11:30.674Z,100452.41
2022-11-30T10:14:26.242Z,100444.48
2022-11-30T10:17:18.469Z,100446.84
2022-11-30T10:20:05.259Z,100451.11
2022-11-30T10:22:35.975Z,100445.40
2022-11-30T10:25:30.263Z,100449.50
2022-11-30T10:28:30.880Z,100449.27
2022-11-30T10:30:55.506Z,100445.63
2022-11-30T10:33:37.036Z,100444.67
2022-11-30T10:36:13.300Z,100440.93
2022-11-30T10:38:44.363Z,100440.80
2022-11-30T10:41:18.194Z,100440.36
2022-11-30T10:43:49.383Z,100435.23
2022-11-30T10:46:31.412Z,100430.86
2022-11-30T10:49:17.090Z,100432.62
2022-11-30T10:51:56.844Z,100433.84
2022-11-30T10:54:24.925Z,100430.33
2022-11-30T10:56:53.199Z,100428.46
2022-11-30T10:59:30.160Z,100429.92
2022-11-30T11:01:58.298Z,100431.77
2022-11-30T11:04:28.054Z,100427.85
2022-11-30T11:07:14.903Z,100429.30
2022-11-30T11:09:50.564Z,100430.11
2022-11-30T11:12:25.140Z,100431.35
2022-11-30T11:15:15.283Z,100426.73
2022-11-30T11:17:43.358Z,100422.20
2022-11-30T11:20:31.575Z,100425.31
2022-11-30T11:23:00.099Z,100423.39
2022-11-30T11:25:32.956Z,100425.88
2022-11-30T11:28:08.938Z,100425.86
2022-11-30T11:30:38.065Z,100428.25
2022-11-30T11:33:14.776Z,100432.25
2022-11-30T11:35:46.609Z,100428.16
2022-11-30T11:38:23.849Z,100426.92
2022-11-30T11:40:56.351Z,100423.51
2022-11-30T11:43:27.525Z,100419.79
2022-11-30T11:46:01.888Z,100421.08
2022-11-30T11:48:38.668Z,100418.52
2022-11-30T11:51:09.408Z,100420.05
2022-11-30T11:53:48.708Z,100421.23
2022-11-30T11:56:26.713Z,100420.60
2022-11-30T11:59:03.250Z,100416.02
2022-11-30T12:01:40.644Z,100417.95
2022-11-30T12:04:35.618Z,100417.20
2022-11-30T12:07:17.947Z,100419.08
2022-11-30T12:10:50.749Z,100422.27
2022-11-30T12:13:24.726Z,100422.12
2022-11-30T12:16:05.139Z,100423.98
2022-11-30T12:18:58.140Z,100426.33
2022-11-30T12:21:52.247Z,100420.69
2022-11-30T12:24:26.061Z,100426.30
2022-11-30T12:27:03.561Z,100424.04
2022-11-30T12:29:49.882Z,100418.05
2022-11-30T12:32:57.495Z,100424.06
2022-11-30T12:35:27.208Z,100417.59
2022-11-30T12:38:16.181Z,100416.17
2022-11-30T12:41:07.816Z,100414.45
2022-11-30T12:43:55.663Z,100413.52
2022-11-30T12:46:41.889Z,100415.24
2022-11-30T12:49:26.501Z,100414.52
2022-11-30T12:52:25.027Z,100415.27
2022-11-30T12:54:59.115Z,100408.50
2022-11-30T12:57:38.569Z,100412.59
2022-11-30T13:00:26.951Z,100414.00
2022-11-30T13:02:58.046Z,100411.53
2022-11-30T13:05:40.826Z,100412.23
2022-11-30T13:08:20.312Z,100412.81
2022-11-30T13:11:03.694Z,100413.08
2022-11-30T13:13:34.257Z,100413.58
2022-11-30T13:16:06.019Z,100412.60
2022-11-30T13:18:35.012Z,100412.30
2022-11-30T13:21:23.462Z,100412.63
2022-11-30T13:24:42.789Z,100410.35
2022-11-30T13:27:20.246Z,100415.23
2022-11-30T13:29:56.207Z,100408.42
2022-11-30T13:32:56.749Z,100408.99
2022-11-30T13:35:28.899Z,100410.75
2022-11-30T13:38:35.643Z,100414.21
2022-11-30T13:41:05.899Z,100413.96
2022-11-30T13:43:52.235Z,100414.41
2022-11-30T13:46:24.173Z,100414.27
2022-11-30T13:49:35.931Z,100414.00
2022-11-30T13:52:23.311Z,100418.63
2022-11-30T13:54:58.398Z,100416.48
2022-11-30T13:57:29.209Z,100416.13
2022-11-30T13:59:59.875Z,100412.42
2022-11-30T14:02:34.282Z,100413.96
2022-11-30T14:05:20.301Z,100411.20
2022-11-30T14:08:00.762Z,100410.30
2022-11-30T14:10:38.037Z,100406.38
2022-11-30T14:13:30.017Z,100416.30
2022-11-30T14:16:00.811Z,100417.45
2022-11-30T14:18:42.826Z,100410.55
2022-11-30T14:21:22.293Z,100408.71
2022-11-30T14:24:06.859Z,100404.73
2022-11-30T14:26:43.658Z,100411.40
2022-11-30T14:29:20.078Z,100408.89
2022-11-30T14:31:48.228Z,100409.54
2022-11-30T14:34:21.535Z,100411.04
2022-11-30T14:36:58.370Z,100411.77
2022-11-30T14:39:27.994Z,100408.38
2022-11-30T14:41:56.209Z,100408.01
2022-11-30T14:44:24.269Z,100409.69
2022-11-30T14:46:52.511Z,100405.23
2022-11-30T14:49:23.638Z,100404.47
2022-11-30T14:52:02.665Z,100406.09
2022-11-30T14:55:10.883Z,100406.15
2022-11-30T14:58:20.130Z,100403.23
2022-11-30T15:00:49.449Z,100403.83
2022-11-30T15:03:23.494Z,100404.63
2022-11-30T15:05:54.892Z,100403.59
2022-11-30T15:08:24.492Z,100407.55
2022-11-30T15:10:56.641Z,100407.90
2022-11-30T15:13:24.790Z,100405.70
2022-11-30T15:15:55.325Z,100408.28
2022-11-30T15:18:25.232Z,100403.77
2022-11-30T15:21:02.351Z,100400.96
2022-11-30T15:23:30.476Z,100403.97
2022-11-30T15:26:14.482Z,100405.52
2022-11-30T15:28:47.426Z,100408.95
2022-11-30T15:31:17.217Z,100412.45
2022-11-30T15:33:47.802Z,100415.65
2022-11-30T15:36:31.911Z,100414.21
2022-11-30T15:39:07.222Z,100411.52
2022-11-30T15:41:36.356Z,100418.13
2022-11-30T15:44:04.579Z,100411.92
2022-11-30T15:46:44.515Z,100418.75
2022-11-30T15:49:27.890Z,100418.84
2022-11-30T15:52:04.358Z,100416.45
2022-11-30T15:54:55.446Z,100418.88
2022-11-30T15:57:25.431Z,100419.31
2022-11-30T16:00:09.146Z,100422.77
2022-11-30T16:02:38.064Z,100426.36
2022-11-30T16:05:14.684Z,100425.13
2022-11-30T16:08:00.135Z,100428.45
2022-11-30T16:10:38.898Z,100430.61
2022-11-30T16:13:06.959Z,100425.60
2022-11-30T16:15:37.046Z,100429.80
2022-11-30T16:18:22.275Z,100433.15
2022-11-30T16:20:53.938Z,100434.16
2022-11-30T16:23:22.411Z,100430.42
2022-11-30T16:25:51.020Z,100431.65
2022-11-30T16:28:21.031Z,100432.48
2022-11-30T16:30:50.190Z,100427.88
2022-11-30T16:33:23.210Z,100425.08
2022-11-30T16:36:01.554Z,100424.58
2022-11-30T16:38:29.702Z,100426.73
2022-11-30T16:41:14.061Z,100430.02
2022-11-30T16:43:43.309Z,100427.02
2022-11-30T16:46:19.631Z,100426.30
2022-11-30T16:48:49.010Z,100427.21
2022-11-30T16:51:27.574Z,100429.83
2022-11-30T16:53:56.114Z,100432.69
2022-11-30T16:56:24.913Z,100433.34
2022-11-30T16:58:53.370Z,100436.09
2022-11-30T17:01:35.506Z,100436.46
2022-11-30T17:04:26.163Z,100435.69
2022-11-30T17:07:00.441Z,100440.86
2022-11-30T17:09:30.685Z,100437.02
2022-11-30T17:11:58.754Z,100435.69
2022-11-30T17:14:26.759Z,100436.89
2022-11-30T17:16:54.948Z,100436.51
2022-11-30T17:19:23.046Z,100438.77
2022-11-30T17:21:51.110Z,100441.04
2022-11-30T17:24:19.267Z,100438.77
2022-11-30T17:26:47.396Z,100442.42
2022-11-30T17:29:15.520Z,100442.09
2022-11-30T17:31:43.546Z,100441.19
2022-11-30T17:34:11.572Z,100442.39
2022-11-30T17:36:39.653Z,100442.23
2022-11-30T17:39:09.124Z,100447.81
2022-11-30T17:41:37.163Z,100448.81
2022-11-30T17:44:05.205Z,100446.44
2022-11-30T17:46:33.280Z,100445.10
2022-11-30T17:49:01.299Z,100445.13
2022-11-30T17:51:29.559Z,100444.39
2022-11-30T17:53:58.048Z,100442.40
2022-11-30T17:56:28.689Z,100436.58
2022-11-30T17:58:56.739Z,100438.85
2022-11-30T18:01:26.854Z,100436.08
2022-11-30T18:03:56.518Z,100439.74
2022-11-30T18:06:24.955Z,100437.44
2022-11-30T18:08:55.807Z,100441.67
2022-11-30T18:11:26.224Z,100442.09
2022-11-30T18:13:56.352Z,100444.40
2022-11-30T18:16:27.096Z,100445.22
2022-11-30T18:18:57.704Z,100443.66
2022-11-30T18:21:29.040Z,100444.40
2022-11-30T18:23:58.389Z,100450.25
2022-11-30T18:26:27.520Z,100454.10
2022-11-30T18:28:57.943Z,100452.88
2022-11-30T18:31:28.086Z,100455.83
2022-11-30T18:34:05.301Z,100454.78
2022-11-30T18:36:34.588Z,100453.68
2022-11-30T18:39:03.130Z,100454.80
2022-11-30T18:41:31.222Z,100455.63
2022-11-30T18:43:59.308Z,100459.49
2022-11-30T18:46:27.724Z,100464.70
2022-11-30T18:48:56.571Z,100460.20
2022-11-30T18:51:27.762Z,100463.05
2022-11-30T18:53:58.646Z,100465.04
2022-11-30T18:56:30.080Z,100461.66
2022-11-30T18:59:00.951Z,100462.31
2022-11-30T19:01:30.686Z,100471.10
2022-11-30T19:04:02.591Z,100473.72
2022-11-30T19:06:33.528Z,100474.26
2022-11-30T19:09:05.492Z,100473.53
2022-11-30T19:11:34.614Z,100475.77
2022-11-30T19:14:04.105Z,100472.30
2022-11-30T19:16:37.452Z,100472.48
2022-11-30T19:19:08.335Z,100469.98
2022-11-30T19:21:37.311Z,100469.29
2022-11-30T19:24:07.001Z,100470.21
2022-11-30T19:26:36.700Z,100476.52
2022-11-30T19:29:05.732Z,100472.67
2022-11-30T19:31:34.929Z,100474.61
2022-11-30T19:34:09.093Z,100474.48
2022-11-30T19:36:41.525Z,100478.35
2022-11-30T19:39:11.283Z,100476.53
2022-11-30T19:41:40.335Z,100476.63
2022-11-30T19:44:14.541Z,100475.85
2022-11-30T19:46:43.447Z,100473.08
2022-11-30T19:49:12.556Z,100473.75
2022-11-30T19:51:42.096Z,100475.06
2022-11-30T19:54:11.984Z,100472.77
2022-11-30T19:56:43.164Z,100473.73
2022-11-30T19:59:11.855Z,100470.16
2022-11-30T20:01:40.617Z,100470.86
2022-11-30T20:04:09.403Z,100467.66
2022-11-30T20:06:39.051Z,100470.38
2022-11-30T20:09:09.330Z,100471.02
2022-11-30T20:11:37.844Z,100470.74
2022-11-30T20:14:06.200Z,100471.78
2022-11-30T20:16:34.363Z,100471.89
2022-11-30T20:19:03.294Z,100469.52
2022-11-30T20:21:34.723Z,100472.16
2022-11-30T20:24:07.193Z,100466.50
2022-11-30T20:26:38.384Z,100460.77
2022-11-30T20:29:08.519Z,100461.84
2022-11-30T20:31:37.716Z,100463.43
2022-11-30T20:34:08.344Z,100462.14
2022-11-30T20:36:37.239Z,100461.98
2022-11-30T20:39:06.204Z,100465.45
2022-11-30T20:41:34.516Z,100464.55
2022-11-30T20:44:03.094Z,100463.91
2022-11-30T20:46:33.762Z,100461.10
2022-11-30T20:49:03.563Z,100458.86
2022-11-30T20:51:36.609Z,100458.30
2022-11-30T20:54:07.295Z,100457.64
2022-11-30T20:56:37.516Z,100454.48
2022-11-30T20:59:09.397Z,100459.17
2022-11-30T21:01:37.544Z,100457.67
2022-11-30T21:04:05.645Z,100454.74
2022-11-30T21:06:33.775Z,100458.05
2022-11-30T21:09:02.023Z,100456.48
2022-11-30T21:11:31.323Z,100458.77
2022-11-30T21:13:59.683Z,100452.86
2022-11-30T21:16:29.764Z,100454.93
2022-11-30T21:19:00.001Z,100455.93
2022-11-30T21:21:33.465Z,100457.58
2022-11-30T21:24:04.030Z,100459.23
2022-11-30T21:26:34.699Z,100458.93
2022-11-30T21:29:07.068Z,100457.93
2022-11-30T21:31:35.974Z,100461.41
2022-11-30T21:34:04.103Z,100462.96
2022-11-30T21:36:32.554Z,100460.30
2022-11-30T21:39:06.036Z,100459.02
2022-11-30T21:41:37.733Z,100460.90
2022-11-30T21:44:08.317Z,100462.30
2022-11-30T21:46:36.446Z,100462.55
2022-11-30T21:49:04.900Z,100466.67
2022-11-30T21:51:33.618Z,100464.16
2022-11-30T21:54:05.307Z,100462.87
2022-11-30T21:56:36.130Z,100461.98
2022-11-30T21:59:07.610Z,100461.46
2022-11-30T22:01:38.701Z,100457.70
2022-11-30T22:04:09.450Z,100458.94
2022-11-30T22:06:39.493Z,100456.83
2022-11-30T22:09:12.699Z,100459.30
2022-11-30T22:11:42.981Z,100455.31
2022-11-30T22:14:14.098Z,100456.36
2022-11-30T22:16:42.626Z,100454.60
2022-11-30T22:19:11.264Z,100456.93
2022-11-30T22:21:39.771Z,100457.89
2022-11-30T22:24:11.116Z,100457.79
2022-11-30T22:26:44.295Z,100457.25
2022-11-30T22:29:15.650Z,100460.15
2022-11-30T22:31:45.767Z,100458.66
2022-11-30T22:34:14.081Z,100458.00
2022-11-30T22:36:43.620Z,100457.45
2022-11-30T22:39:14.683Z,100455.52
2022-11-30T22:41:45.278Z,100447.37
2022-11-30T22:44:15.521Z,100448.36
2022-11-30T22:46:44.734Z,100446.45
2022-11-30T22:49:20.297Z,100445.69
2022-11-30T22:51:49.888Z,100441.34
2022-11-30T22:54:18.560Z,100441.83
2022-11-30T22:56:47.001Z,100442.90
2022-11-30T22:59:15.975Z,100441.45
2022-11-30T23:01:47.181Z,100434.05
2022-11-30T23:04:18.482Z,100434.81
2022-11-30T23:06:48.434Z,100437.51
2022-11-30T23:09:19.616Z,100440.91
2022-11-30T23:11:48.615Z,100439.94
2022-11-30T23:14:17.462Z,100440.25
2022-11-30T23:16:46.172Z,100435.63
2022-11-30T23:19:15.419Z,100440.39
2022-11-30T23:21:47.181Z,100438.75
2022-11-30T23:24:20.430Z,100440.64
2022-11-30T23:26:49.314Z,100436.99
2022-11-30T23:29:18.235Z,100437.02
2022-11-30T23:31:47.645Z,100435.55
2022-11-30T23:34:19.871Z,100434.36
2022-11-30T23:36:49.099Z,100437.56
2022-11-30T23:39:18.702Z,100434.25
2022-11-30T23:41:46.868Z,100430.58
2022-11-30T23:44:15.149Z,100431.55
2022-11-30T23:46:43.400Z,100426.35
2022-11-30T23:49:14.145Z,100428.02
2022-11-30T23:51:43.127Z,100429.58
2022-11-30T23:54:11.164Z,100426.63
2022-11-30T23:56:39.183Z,100427.60
2022-11-30T23:59:07.214Z,100427.80
